createdAt,value
2019-05-29T00:00:42.378Z,14.30
2019-05-29T00:03:29.488Z,14.30
2019-05-29T00:06:16.820Z,14.30
2019-05-29T00:09:06.118Z,14.40
2019-05-29T00:11:53.435Z,14.50
2019-05-29T00:14:40.589Z,14.50
2019-05-29T00:17:28.002Z,14.50
2019-05-29T00:20:15.486Z,14.50
2019-05-29T00:23:02.888Z,14.40
2019-05-29T00:25:49.707Z,14.30
2019-05-29T00:28:36.891Z,14.40
2019-05-29T00:31:23.861Z,14.30
2019-05-29T00:34:11.176Z,14.30
2019-05-29T00:36:58.591Z,14.30
2019-05-29T00:39:44.589Z,14.30
2019-05-29T00:42:31.745Z,14.30
2019-05-29T00:45:19.755Z,14.20
2019-05-29T00:48:07.697Z,14.20
2019-05-29T00:50:55.032Z,14.20
2019-05-29T00:53:41.988Z,14.20
2019-05-29T00:56:29.225Z,14.20
2019-05-29T00:59:17.414Z,14.10
2019-05-29T01:02:04.492Z,14.20
2019-05-29T01:04:50.445Z,14.20
2019-05-29T01:07:37.577Z,14.10
2019-05-29T01:10:24.786Z,14.10
2019-05-29T01:13:11.442Z,14.10
2019-05-29T01:15:58.327Z,14.10
2019-05-29T01:18:45.773Z,14.10
2019-05-29T01:21:32.847Z,14.20
2019-05-29T01:24:20.639Z,14.10
2019-05-29T01:27:08.194Z,14.10
2019-05-29T01:29:55.664Z,14.00
2019-05-29T01:32:43.115Z,14.10
2019-05-29T01:35:30.365Z,14.00
2019-05-29T01:38:17.624Z,14.00
2019-05-29T01:41:05.089Z,14.00
2019-05-29T01:43:52.527Z,14.10
2019-05-29T01:46:40.219Z,14.00
2019-05-29T01:49:28.027Z,14.00
2019-05-29T01:52:15.596Z,13.90
2019-05-29T01:55:03.897Z,14.00
2019-05-29T01:57:51.278Z,14.00
2019-05-29T02:00:38.752Z,14.00
2019-05-29T02:03:26.047Z,14.00
2019-05-29T02:06:13.417Z,14.00
2019-05-29T02:09:00.647Z,14.00
2019-05-29T02:11:47.852Z,14.00
2019-05-29T02:14:38.222Z,13.90
2019-05-29T02:17:25.578Z,13.90
2019-05-29T02:20:13.421Z,13.90
2019-05-29T02:23:00.790Z,13.80
2019-05-29T02:25:48.407Z,13.70
2019-05-29T02:28:35.392Z,13.80
2019-05-29T02:31:24.686Z,13.60
2019-05-29T02:34:11.737Z,13.60
2019-05-29T02:36:58.731Z,13.70
2019-05-29T02:39:46.086Z,13.60
2019-05-29T02:42:33.370Z,13.70
2019-05-29T02:45:21.595Z,13.60
2019-05-29T02:48:09.593Z,13.70
2019-05-29T02:50:57.675Z,13.60
2019-05-29T02:53:44.843Z,13.60
2019-05-29T02:56:31.962Z,13.60
2019-05-29T02:59:20.897Z,13.50
2019-05-29T03:02:08.497Z,13.50
2019-05-29T03:04:55.977Z,13.60
2019-05-29T03:07:43.019Z,13.60
2019-05-29T03:10:30.879Z,13.50
2019-05-29T03:13:18.880Z,13.70
2019-05-29T03:16:11.393Z,13.70
2019-05-29T03:18:54.894Z,13.60
2019-05-29T03:21:41.979Z,13.50
2019-05-29T03:24:30.732Z,13.50
2019-05-29T03:27:17.325Z,13.30
2019-05-29T03:30:06.316Z,13.30
2019-05-29T03:32:53.380Z,13.30
2019-05-29T03:35:47.737Z,13.30
2019-05-29T03:38:30.301Z,13.30
2019-05-29T03:41:17.618Z,13.30
2019-05-29T03:44:05.128Z,13.20
2019-05-29T03:46:52.058Z,13.20
2019-05-29T03:49:39.197Z,13.30
2019-05-29T03:52:28.301Z,13.20
2019-05-29T03:55:16.180Z,13.10
2019-05-29T03:58:04.146Z,13.20
2019-05-29T04:00:51.500Z,13.20
2019-05-29T04:03:38.755Z,13.30
2019-05-29T04:06:26.953Z,13.20
2019-05-29T04:09:14.111Z,13.30
2019-05-29T04:12:01.333Z,13.50
2019-05-29T04:14:49.175Z,13.40
2019-05-29T04:17:38.204Z,13.50
2019-05-29T04:20:27.399Z,13.60
2019-05-29T04:23:16.323Z,13.50
2019-05-29T04:26:03.289Z,13.50
2019-05-29T04:28:50.913Z,13.60
2019-05-29T04:31:38.479Z,13.50
2019-05-29T04:34:25.579Z,13.40
2019-05-29T04:37:12.546Z,13.50
2019-05-29T04:39:59.738Z,13.60
2019-05-29T04:42:46.718Z,13.70
2019-05-29T04:45:35.358Z,13.70
2019-05-29T04:48:22.590Z,13.70
2019-05-29T04:51:09.708Z,13.70
2019-05-29T04:53:56.873Z,13.80
2019-05-29T04:56:44.222Z,13.80
2019-05-29T04:59:31.395Z,13.70
2019-05-29T05:02:18.561Z,13.50
2019-05-29T05:05:06.469Z,13.60
2019-05-29T05:07:53.935Z,13.50
2019-05-29T05:10:41.882Z,13.40
2019-05-29T05:13:29.542Z,13.50
2019-05-29T05:16:16.584Z,13.70
2019-05-29T05:19:03.206Z,13.80
2019-05-29T05:21:50.512Z,14.00
2019-05-29T05:24:40.946Z,14.00
2019-05-29T05:27:26.034Z,14.00
2019-05-29T05:30:13.638Z,13.90
2019-05-29T05:33:00.845Z,14.30
2019-05-29T05:35:48.341Z,14.40
2019-05-29T05:38:36.821Z,14.60
2019-05-29T05:41:24.023Z,14.60
2019-05-29T05:44:11.318Z,14.40
2019-05-29T05:46:58.903Z,14.40
2019-05-29T05:49:46.484Z,14.30
2019-05-29T05:52:33.781Z,14.40
2019-05-29T05:55:20.948Z,14.40
2019-05-29T05:58:08.535Z,14.50
2019-05-29T06:00:56.009Z,14.40
2019-05-29T06:03:43.477Z,14.50
2019-05-29T06:06:31.955Z,14.50
2019-05-29T06:09:19.483Z,14.50
2019-05-29T06:12:06.773Z,14.40
2019-05-29T06:14:54.395Z,14.40
2019-05-29T06:17:57.112Z,14.40
2019-05-29T06:20:31.073Z,14.40
2019-05-29T06:23:18.572Z,14.40
2019-05-29T06:26:05.903Z,14.70
2019-05-29T06:28:55.480Z,14.70
2019-05-29T06:31:43.441Z,14.80
2019-05-29T06:34:30.504Z,14.70
2019-05-29T06:37:18.238Z,14.80
2019-05-29T06:40:07.336Z,15.00
2019-05-29T06:42:54.499Z,15.00
2019-05-29T06:45:42.085Z,15.10
2019-05-29T06:48:42.333Z,15.20
2019-05-29T06:51:18.404Z,15.20
2019-05-29T06:54:05.985Z,15.30
2019-05-29T06:56:53.231Z,15.30
2019-05-29T06:59:40.564Z,15.30
2019-05-29T07:02:27.455Z,15.10
2019-05-29T07:05:14.606Z,15.00
2019-05-29T07:08:16.426Z,15.00
2019-05-29T07:10:49.911Z,15.10
2019-05-29T07:13:37.781Z,15.10
2019-05-29T07:16:40.953Z,15.20
2019-05-29T07:19:47.113Z,15.40
2019-05-29T07:22:02.075Z,15.50
2019-05-29T07:24:49.313Z,15.60
2019-05-29T07:27:36.866Z,15.70
2019-05-29T07:30:24.129Z,15.90
2019-05-29T07:33:11.117Z,16.20
2019-05-29T07:35:58.008Z,16.50
2019-05-29T07:38:56.113Z,16.70
2019-05-29T07:41:34.166Z,17.10
2019-05-29T07:44:21.097Z,17.40
2019-05-29T07:47:09.921Z,17.60
2019-05-29T07:49:55.645Z,17.80
2019-05-29T07:52:43.234Z,17.70
2019-05-29T07:55:31.026Z,17.60
2019-05-29T07:58:18.035Z,17.70
2019-05-29T08:01:13.353Z,17.70
2019-05-29T08:03:53.340Z,17.40
2019-05-29T08:06:47.810Z,17.50
2019-05-29T08:09:28.996Z,17.90
2019-05-29T08:12:15.735Z,18.20
2019-05-29T08:15:01.630Z,18.10
2019-05-29T08:17:50.149Z,18.30
2019-05-29T08:20:37.065Z,18.40
2019-05-29T08:23:23.978Z,18.30
2019-05-29T08:26:11.036Z,18.30
2019-05-29T08:28:58.463Z,18.10
2019-05-29T08:31:46.736Z,18.20
2019-05-29T08:34:33.982Z,18.40
2019-05-29T08:37:21.236Z,18.50
2019-05-29T08:40:09.061Z,18.40
2019-05-29T08:42:56.067Z,18.10
2019-05-29T08:45:43.483Z,18.00
2019-05-29T08:48:30.778Z,18.00
2019-05-29T08:51:17.999Z,17.80
2019-05-29T08:54:23.009Z,17.60
2019-05-29T08:56:54.264Z,17.80
2019-05-29T08:59:42.114Z,17.70
2019-05-29T09:02:29.269Z,17.90
2019-05-29T09:05:17.984Z,17.90
2019-05-29T09:08:05.648Z,18.00
2019-05-29T09:10:54.279Z,18.20
2019-05-29T09:13:41.566Z,18.20
2019-05-29T09:16:28.757Z,18.00
2019-05-29T09:19:16.392Z,17.90
2019-05-29T09:22:03.371Z,17.80
2019-05-29T09:24:50.564Z,18.20
2019-05-29T09:27:37.784Z,18.70
2019-05-29T09:30:25.171Z,18.60
2019-05-29T09:33:15.235Z,18.60
2019-05-29T09:36:01.535Z,18.70
2019-05-29T09:38:48.961Z,18.90
2019-05-29T09:41:36.046Z,18.70
2019-05-29T09:44:35.702Z,18.50
2019-05-29T09:47:11.718Z,18.30
2019-05-29T09:49:58.885Z,18.60
2019-05-29T09:52:46.052Z,18.80
2019-05-29T09:55:33.002Z,18.70
2019-05-29T09:58:20.477Z,18.60
2019-05-29T10:01:21.711Z,18.80
2019-05-29T10:03:57.498Z,18.90
2019-05-29T10:06:44.869Z,18.80
2019-05-29T10:09:32.056Z,18.80
2019-05-29T10:12:18.868Z,19.50
2019-05-29T10:15:13.228Z,20.30
2019-05-29T10:18:00.646Z,20.30
2019-05-29T10:20:47.903Z,19.90
2019-05-29T10:23:35.211Z,19.90
2019-05-29T10:26:22.646Z,19.70
2019-05-29T10:29:09.726Z,19.40
2019-05-29T10:31:57.013Z,19.70
2019-05-29T10:34:44.363Z,20.00
2019-05-29T10:37:31.794Z,20.60
2019-05-29T10:40:18.892Z,21.00
2019-05-29T10:43:05.858Z,21.00
2019-05-29T10:45:54.038Z,21.00
2019-05-29T10:48:41.187Z,21.30
2019-05-29T10:51:28.750Z,21.20
2019-05-29T10:54:16.111Z,20.60
2019-05-29T10:57:03.220Z,21.00
2019-05-29T10:59:50.858Z,20.90
2019-05-29T11:02:37.957Z,21.30
2019-05-29T11:05:24.860Z,21.80
2019-05-29T11:08:11.757Z,21.80
2019-05-29T11:10:58.660Z,22.20
2019-05-29T11:13:46.681Z,22.20
2019-05-29T11:16:33.840Z,21.70
2019-05-29T11:19:21.021Z,21.80
2019-05-29T11:22:25.351Z,22.30
2019-05-29T11:25:00.193Z,23.00
2019-05-29T11:27:45.957Z,23.40
2019-05-29T11:30:32.901Z,24.00
2019-05-29T11:33:20.489Z,24.40
2019-05-29T11:36:12.825Z,24.50
2019-05-29T11:38:56.946Z,24.30
2019-05-29T11:41:45.467Z,23.40
2019-05-29T11:44:32.868Z,23.20
2019-05-29T11:47:20.203Z,23.50
2019-05-29T11:50:19.619Z,22.90
2019-05-29T11:53:02.684Z,22.40
2019-05-29T11:55:52.278Z,23.20
2019-05-29T11:58:39.137Z,23.80
2019-05-29T12:01:26.187Z,24.10
2019-05-29T12:04:25.749Z,23.90
2019-05-29T12:07:01.666Z,23.70
2019-05-29T12:09:48.731Z,24.20
2019-05-29T12:12:36.036Z,25.00
2019-05-29T12:15:23.373Z,25.10
2019-05-29T12:18:22.669Z,24.10
2019-05-29T12:21:01.096Z,24.10
2019-05-29T12:23:48.035Z,24.10
2019-05-29T12:26:35.247Z,24.10
2019-05-29T12:29:22.415Z,23.40
2019-05-29T12:32:11.560Z,23.90
2019-05-29T12:34:59.720Z,24.20
2019-05-29T12:37:47.201Z,24.40
2019-05-29T12:40:34.214Z,24.10
2019-05-29T12:43:27.336Z,24.70
2019-05-29T12:46:09.852Z,25.10
2019-05-29T12:48:57.557Z,25.00
2019-05-29T12:51:45.015Z,24.80
2019-05-29T12:54:31.641Z,24.50
2019-05-29T12:57:18.409Z,24.40
2019-05-29T13:00:11.393Z,24.60
2019-05-29T13:02:58.689Z,24.60
2019-05-29T13:05:46.209Z,24.30
2019-05-29T13:08:33.326Z,24.70
2019-05-29T13:11:20.613Z,24.90
2019-05-29T13:14:07.916Z,25.40
2019-05-29T13:16:56.601Z,25.20
2019-05-29T13:19:44.225Z,25.40
2019-05-29T13:22:31.657Z,24.50
2019-05-29T13:25:19.066Z,24.40
2019-05-29T13:28:06.349Z,24.50
2019-05-29T13:30:53.587Z,24.70
2019-05-29T13:33:40.835Z,24.90
2019-05-29T13:36:27.831Z,24.80
2019-05-29T13:39:14.858Z,24.80
2019-05-29T13:42:08.814Z,25.00
2019-05-29T13:44:50.663Z,25.50
2019-05-29T13:47:37.813Z,24.90
2019-05-29T13:50:24.487Z,25.20
2019-05-29T13:53:11.252Z,24.40
2019-05-29T13:55:57.869Z,24.10
2019-05-29T13:58:44.814Z,24.70
2019-05-29T14:01:32.249Z,25.00
2019-05-29T14:04:19.187Z,25.20
2019-05-29T14:07:06.741Z,24.40
2019-05-29T14:09:54.109Z,24.00
2019-05-29T14:12:41.408Z,23.70
2019-05-29T14:15:28.643Z,23.60
2019-05-29T14:18:15.730Z,22.80
2019-05-29T14:21:03.195Z,22.70
2019-05-29T14:23:50.339Z,23.60
2019-05-29T14:26:37.163Z,24.40
2019-05-29T14:29:24.613Z,24.80
2019-05-29T14:32:11.298Z,24.80
2019-05-29T14:34:58.220Z,25.00
2019-05-29T14:37:45.146Z,24.50
2019-05-29T14:40:32.198Z,24.40
2019-05-29T14:43:19.170Z,23.60
2019-05-29T14:46:08.084Z,23.60
2019-05-29T14:48:55.356Z,23.80
2019-05-29T14:51:42.367Z,24.10
2019-05-29T14:54:41.338Z,24.70
2019-05-29T14:57:24.777Z,25.00
2019-05-29T15:00:22.957Z,25.00
2019-05-29T15:03:03.363Z,24.40
2019-05-29T15:05:50.567Z,25.00
2019-05-29T15:08:37.899Z,25.50
2019-05-29T15:11:24.794Z,25.70
2019-05-29T15:14:12.345Z,25.20
2019-05-29T15:16:59.380Z,25.60
2019-05-29T15:19:46.918Z,26.20
2019-05-29T15:22:33.923Z,26.30
2019-05-29T15:25:25.936Z,26.80
2019-05-29T15:28:14.575Z,27.10
2019-05-29T15:31:01.727Z,26.10
2019-05-29T15:33:48.757Z,25.40
2019-05-29T15:36:35.812Z,25.10
2019-05-29T15:39:22.873Z,25.30
2019-05-29T15:42:10.923Z,25.30
2019-05-29T15:44:58.176Z,25.00
2019-05-29T15:47:45.462Z,24.80
2019-05-29T15:50:32.775Z,24.90
2019-05-29T15:53:20.287Z,25.10
2019-05-29T15:56:18.153Z,25.10
2019-05-29T15:58:56.033Z,25.10
2019-05-29T16:01:43.032Z,25.90
2019-05-29T16:04:29.775Z,26.50
2019-05-29T16:07:18.131Z,26.90
2019-05-29T16:10:12.303Z,26.60
2019-05-29T16:12:57.810Z,26.60
2019-05-29T16:15:44.700Z,26.60
2019-05-29T16:18:31.970Z,27.10
2019-05-29T16:21:18.999Z,26.60
2019-05-29T16:24:06.172Z,26.90
2019-05-29T16:27:06.114Z,27.30
2019-05-29T16:29:42.135Z,27.60
2019-05-29T16:32:29.274Z,28.00
2019-05-29T16:35:17.270Z,28.00
2019-05-29T16:38:04.305Z,28.00
2019-05-29T16:40:51.011Z,28.10
2019-05-29T16:43:38.287Z,28.40
2019-05-29T16:46:25.251Z,28.60
2019-05-29T16:49:12.648Z,28.10
2019-05-29T16:51:59.904Z,27.50
2019-05-29T16:54:46.940Z,26.80
2019-05-29T16:57:34.242Z,26.20
2019-05-29T17:00:21.930Z,25.70
2019-05-29T17:03:08.702Z,25.40
2019-05-29T17:05:55.941Z,25.40
2019-05-29T17:08:42.949Z,25.40
2019-05-29T17:11:29.862Z,25.80
2019-05-29T17:14:18.412Z,26.20
2019-05-29T17:17:05.886Z,26.00
2019-05-29T17:19:52.930Z,26.00
2019-05-29T17:22:40.016Z,26.50
2019-05-29T17:25:28.539Z,27.00
2019-05-29T17:28:18.957Z,26.40
2019-05-29T17:31:04.903Z,26.80
2019-05-29T17:33:52.126Z,27.20
2019-05-29T17:36:39.187Z,27.30
2019-05-29T17:39:26.169Z,27.30
2019-05-29T17:42:13.127Z,27.50
2019-05-29T17:45:00.437Z,28.00
2019-05-29T17:47:47.687Z,28.20
2019-05-29T17:50:34.611Z,28.40
2019-05-29T17:53:22.466Z,28.60
2019-05-29T17:56:23.351Z,28.80
2019-05-29T17:58:58.426Z,28.40
2019-05-29T18:01:45.624Z,27.60
2019-05-29T18:04:32.948Z,27.40
2019-05-29T18:07:20.637Z,27.20
2019-05-29T18:10:09.255Z,26.90
2019-05-29T18:12:56.160Z,26.30
2019-05-29T18:15:43.286Z,25.60
2019-05-29T18:18:29.982Z,25.00
2019-05-29T18:21:17.448Z,24.60
2019-05-29T18:24:04.577Z,24.10
2019-05-29T18:26:52.366Z,23.60
2019-05-29T18:29:39.036Z,23.10
2019-05-29T18:32:26.553Z,22.70
2019-05-29T18:35:14.063Z,22.20
2019-05-29T18:38:01.069Z,22.00
2019-05-29T18:40:48.290Z,21.80
2019-05-29T18:43:35.518Z,21.60
2019-05-29T18:46:23.239Z,21.40
2019-05-29T18:49:14.368Z,21.20
2019-05-29T18:52:00.401Z,21.00
2019-05-29T18:54:48.323Z,20.90
2019-05-29T18:57:35.639Z,20.60
2019-05-29T19:00:25.398Z,20.40
2019-05-29T19:03:12.763Z,20.10
2019-05-29T19:05:59.979Z,19.80
2019-05-29T19:08:47.765Z,19.60
2019-05-29T19:11:34.727Z,19.10
2019-05-29T19:14:21.866Z,18.60
2019-05-29T19:17:08.961Z,18.30
2019-05-29T19:19:55.932Z,18.10
2019-05-29T19:22:43.105Z,17.80
2019-05-29T19:25:30.875Z,17.70
2019-05-29T19:28:18.066Z,17.60
2019-05-29T19:31:05.517Z,17.20
2019-05-29T19:33:52.731Z,17.00
2019-05-29T19:36:40.379Z,16.80
2019-05-29T19:39:28.025Z,16.70
2019-05-29T19:42:14.898Z,16.50
2019-05-29T19:45:01.703Z,16.20
2019-05-29T19:47:49.113Z,16.10
2019-05-29T19:50:36.525Z,16.00
2019-05-29T19:53:25.202Z,15.90
2019-05-29T19:56:12.199Z,15.70
2019-05-29T19:58:59.502Z,15.50
2019-05-29T20:01:46.566Z,15.40
2019-05-29T20:04:34.653Z,15.20
2019-05-29T20:07:21.826Z,15.20
2019-05-29T20:10:09.718Z,15.20
2019-05-29T20:12:56.953Z,15.20
2019-05-29T20:15:44.555Z,15.00
2019-05-29T20:18:32.051Z,15.00
2019-05-29T20:21:19.111Z,14.90
2019-05-29T20:24:06.581Z,14.80
2019-05-29T20:26:53.937Z,14.60
2019-05-29T20:29:41.186Z,14.30
2019-05-29T20:32:28.697Z,14.20
2019-05-29T20:35:17.081Z,14.00
2019-05-29T20:38:06.627Z,13.90
2019-05-29T20:40:53.289Z,13.90
2019-05-29T20:43:41.876Z,13.80
2019-05-29T20:46:30.430Z,13.70
2019-05-29T20:49:17.910Z,13.50
2019-05-29T20:52:05.391Z,13.50
2019-05-29T20:54:53.249Z,13.30
2019-05-29T20:57:40.453Z,13.10
2019-05-29T21:00:27.717Z,13.00
2019-05-29T21:03:15.438Z,12.90
2019-05-29T21:06:03.624Z,12.90
2019-05-29T21:08:51.011Z,12.90
2019-05-29T21:11:39.518Z,13.00
2019-05-29T21:14:26.837Z,13.00
2019-05-29T21:17:14.611Z,13.00
2019-05-29T21:20:01.750Z,13.10
2019-05-29T21:22:49.211Z,13.10
2019-05-29T21:25:36.691Z,13.10
2019-05-29T21:28:37.216Z,12.90
2019-05-29T21:31:13.052Z,13.00
2019-05-29T21:34:00.600Z,13.00
2019-05-29T21:36:47.788Z,13.00
2019-05-29T21:39:36.282Z,13.20
2019-05-29T21:42:23.406Z,13.30
2019-05-29T21:45:11.655Z,13.40
2019-05-29T21:47:59.312Z,13.50
2019-05-29T21:50:47.454Z,13.50
2019-05-29T21:53:34.423Z,13.50
2019-05-29T21:56:21.673Z,13.40
2019-05-29T21:59:09.220Z,13.30
2019-05-29T22:01:57.051Z,13.20
2019-05-29T22:04:44.928Z,13.20
2019-05-29T22:07:32.226Z,13.10
2019-05-29T22:10:19.913Z,13.10
2019-05-29T22:13:07.516Z,13.10
2019-05-29T22:15:54.890Z,13.10
2019-05-29T22:18:42.489Z,13.00
2019-05-29T22:21:29.841Z,13.00
2019-05-29T22:24:17.021Z,12.80
2019-05-29T22:27:04.448Z,12.70
2019-05-29T22:29:52.334Z,12.70
2019-05-29T22:32:40.607Z,12.60
2019-05-29T22:35:28.139Z,12.70
2019-05-29T22:38:15.022Z,12.60
2019-05-29T22:41:02.351Z,12.60
2019-05-29T22:43:49.775Z,12.60
2019-05-29T22:46:36.881Z,12.60
2019-05-29T22:49:24.159Z,12.50
2019-05-29T22:52:11.576Z,12.40
2019-05-29T22:54:59.919Z,12.30
2019-05-29T22:57:47.558Z,12.20
2019-05-29T23:00:35.485Z,12.00
2019-05-29T23:03:22.896Z,11.90
2019-05-29T23:06:10.195Z,11.80
2019-05-29T23:08:58.474Z,11.80
2019-05-29T23:11:45.969Z,11.90
2019-05-29T23:14:33.385Z,12.00
2019-05-29T23:17:20.792Z,12.10
2019-05-29T23:20:08.317Z,12.20
2019-05-29T23:22:56.503Z,12.10
2019-05-29T23:25:44.252Z,11.90
2019-05-29T23:28:31.962Z,11.70
2019-05-29T23:31:19.309Z,11.60
2019-05-29T23:34:06.563Z,11.60
2019-05-29T23:36:54.955Z,11.50
2019-05-29T23:39:42.244Z,11.50
2019-05-29T23:42:29.750Z,11.70
2019-05-29T23:45:17.336Z,11.80
2019-05-29T23:48:04.516Z,11.80
2019-05-29T23:50:53.350Z,11.70
2019-05-29T23:53:40.444Z,11.60
2019-05-29T23:56:27.635Z,11.70
2019-05-29T23:59:15.039Z,11.50
